Time,TemperatureF,DewpointF,PressureIn,WindDirection,WindDirectionDegrees,WindSpeedMPH,WindSpeedGustMPH,Humidity,HourlyPrecipIn,Conditions,Clouds,dailyrainin,SoftwareType,DateUTC
2013-04-24 00:00:00,55.8,54.1,29.76,SE,135,5.0,13.0,94,0.10,,SKC,0.03,VWS V14.01,2013-04-24 04:00:00,
2013-04-24 00:14:00,55.8,54.0,29.75,SE,127,6.0,12.0,94,0.06,,,0.01,weatherlink.com 1.10,2013-04-24 04:14:00,
2013-04-24 00:29:00,56.1,54.0,29.74,SE,134,4.0,13.0,93,0.04,,,0.01,weatherlink.com 1.10,2013-04-24 04:29:00,
2013-04-24 00:30:00,56.2,54.2,29.74,SE,135,6.0,14.0,93,0.08,,SKC,0.04,VWS V14.01,2013-04-24 04:30:00,
2013-04-24 00:44:00,56.7,54.0,29.74,SE,130,8.0,12.0,91,0.02,,,0.01,weatherlink.com 1.10,2013-04-24 04:44:00,
2013-04-24 00:59:00,57.1,54.0,29.75,SW,217,8.0,10.0,89,0.01,,,0.01,weatherlink.com 1.10,2013-04-24 04:59:00,
2013-04-24 01:00:00,57.0,53.8,29.75,SSE,158,6.0,12.0,89,0.04,,SKC,0.04,VWS V14.01,2013-04-24 05:00:00,
2013-04-24 01:14:00,56.9,54.0,29.76,SW,234,6.0,9.0,89,0.00,,,0.01,weatherlink.com 1.10,2013-04-24 05:14:00,
2013-04-24 01:29:00,56.5,54.0,29.75,WSW,242,5.0,8.0,90,0.02,,,0.03,weatherlink.com 1.10,2013-04-24 05:29:00,
2013-04-24 01:30:00,56.4,53.5,29.75,WSW,248,5.0,9.0,90,0.03,,SKC,0.06,VWS V14.01,2013-04-24 05:30:00,
2013-04-24 01:44:00,56.2,54.0,29.75,WSW,240,6.0,7.0,91,0.03,,,0.04,weatherlink.com 1.10,2013-04-24 05:44:00,
2013-04-24 01:59:00,56.0,54.0,29.74,SW,233,1.0,5.0,91,0.03,,,0.04,weatherlink.com 1.10,2013-04-24 05:59:00,
2013-04-24 02:00:00,55.9,53.3,29.74,SW,225,3.0,7.0,91,0.03,,SKC,0.07,VWS V14.01,2013-04-24 06:00:00,
2013-04-24 02:14:00,55.6,53.0,29.73,SSW,194,2.0,5.0,92,0.03,,,0.04,weatherlink.com 1.10,2013-04-24 06:14:00,
2013-04-24 02:29:00,55.6,53.0,29.73,SSW,202,2.0,6.0,92,0.01,,,0.04,weatherlink.com 1.10,2013-04-24 06:29:00,
2013-04-24 02:30:00,55.7,53.4,29.73,SSW,202,3.0,8.0,92,0.03,,SKC,0.07,VWS V14.01,2013-04-24 06:30:00,
2013-04-24 02:44:00,55.7,54.0,29.72,SSW,196,2.0,6.0,92,0.00,,,0.04,weatherlink.com 1.10,2013-04-24 06:44:00,
2013-04-24 02:59:00,55.7,54.0,29.72,SSW,209,2.0,7.0,93,0.00,,,0.04,weatherlink.com 1.10,2013-04-24 06:59:00,
2013-04-24 03:00:00,55.7,53.7,29.72,SSW,202,3.0,9.0,93,0.01,,SKC,0.07,VWS V14.01,2013-04-24 07:00:00,
2013-04-24 03:14:00,55.7,54.0,29.71,SW,232,3.0,6.0,93,0.00,,,0.04,weatherlink.com 1.10,2013-04-24 07:14:00,
2013-04-24 03:29:00,52.8,50.0,29.71,WNW,303,1.0,7.0,91,0.00,,,0.04,weatherlink.com 1.10,2013-04-24 07:29:00,
2013-04-24 03:30:00,52.4,49.8,29.72,SSW,202,4.0,14.0,91,0.00,,SKC,0.07,VWS V14.01,2013-04-24 07:30:00,
2013-04-24 03:44:00,51.5,49.0,29.72,WNW,284,5.0,7.0,92,0.01,,,0.05,weatherlink.com 1.10,2013-04-24 07:44:00,
2013-04-24 03:59:00,50.5,48.0,29.72,NW,306,4.0,10.0,92,0.02,,,0.06,weatherlink.com 1.10,2013-04-24 07:59:00,
2013-04-24 04:00:00,50.3,48.1,29.71,WNW,292,3.0,10.0,92,0.02,,SKC,0.09,VWS V14.01,2013-04-24 08:00:00,
2013-04-24 04:14:00,49.4,47.0,29.72,WNW,287,6.0,12.0,92,0.03,,,0.07,weatherlink.com 1.10,2013-04-24 08:14:00,
2013-04-24 04:30:00,48.1,46.0,29.72,NW,319,10.0,14.0,92,0.03,,,0.07,weatherlink.com 1.10,2013-04-24 08:30:00,
2013-04-24 04:45:00,47.2,45.0,29.74,WNW,294,5.0,12.0,92,0.03,,,0.08,weatherlink.com 1.10,2013-04-24 08:45:00,
2013-04-24 05:00:00,46.8,45.0,29.75,NNW,344,8.0,13.0,92,0.07,,,0.13,weatherlink.com 1.10,2013-04-24 09:00:00,
2013-04-24 05:15:00,46.3,44.0,29.74,NW,313,8.0,15.0,92,0.07,,,0.14,weatherlink.com 1.10,2013-04-24 09:15:00,
2013-04-24 05:30:00,46.2,44.0,29.76,NW,318,3.0,11.0,93,0.09,,,0.16,weatherlink.com 1.10,2013-04-24 09:30:00,
2013-04-24 05:45:00,46.1,44.0,29.76,WNW,283,4.0,11.0,93,0.08,,,0.17,weatherlink.com 1.10,2013-04-24 09:45:00,
2013-04-24 06:00:00,45.8,44.0,29.77,NW,307,8.0,13.0,92,0.06,,,0.19,weatherlink.com 1.10,2013-04-24 10:00:00,
2013-04-24 06:15:00,45.2,43.0,29.76,NW,319,7.0,14.0,92,0.07,,,0.21,weatherlink.com 1.10,2013-04-24 10:15:00,
2013-04-24 06:30:00,45.1,43.0,29.77,NW,313,8.0,12.0,92,0.10,,,0.26,weatherlink.com 1.10,2013-04-24 10:30:00,
2013-04-24 06:45:00,44.9,43.0,29.77,WNW,300,3.0,10.0,92,0.10,,,0.27,weatherlink.com 1.10,2013-04-24 10:45:00,
2013-04-24 07:00:00,44.4,42.0,29.79,NW,309,9.0,10.0,92,0.08,,,0.28,weatherlink.com 1.10,2013-04-24 11:00:00,
2013-04-24 07:15:00,44.2,42.0,29.78,NW,323,6.0,12.0,92,0.08,,,0.29,weatherlink.com 1.10,2013-04-24 11:15:00,
2013-04-24 07:30:00,43.4,41.0,29.81,NW,311,11.0,18.0,92,0.05,,,0.31,weatherlink.com 1.10,2013-04-24 11:30:00,
2013-04-24 07:45:00,42.6,41.0,29.80,NW,317,8.0,14.0,92,0.07,,,0.34,weatherlink.com 1.10,2013-04-24 11:45:00,
2013-04-24 08:00:00,41.4,39.0,29.80,NNW,328,8.0,13.0,92,0.07,,,0.35,weatherlink.com 1.10,2013-04-24 12:00:00,
2013-04-24 08:15:00,40.6,38.0,29.80,NNW,329,7.0,17.0,91,0.05,,,0.35,weatherlink.com 1.10,2013-04-24 12:15:00,
2013-04-24 08:30:00,40.3,38.0,29.81,NNW,327,7.0,15.0,91,0.04,,,0.35,weatherlink.com 1.10,2013-04-24 12:30:00,
2013-04-24 08:45:00,40.1,38.0,29.82,NW,305,4.0,12.0,92,0.02,,,0.36,weatherlink.com 1.10,2013-04-24 12:45:00,
2013-04-24 09:00:00,39.9,38.0,29.82,NW,317,5.0,14.0,92,0.03,,,0.38,weatherlink.com 1.10,2013-04-24 13:00:00,
2013-04-24 09:15:00,39.0,37.0,29.82,NNW,344,12.0,16.0,91,0.04,,,0.39,weatherlink.com 1.10,2013-04-24 13:15:00,
2013-04-24 09:30:00,39.1,37.0,29.81,NNW,343,12.0,17.0,92,0.06,,,0.41,weatherlink.com 1.10,2013-04-24 13:30:00,
2013-04-24 09:45:00,38.4,36.0,29.81,NNW,334,8.0,15.0,91,0.08,,,0.44,weatherlink.com 1.10,2013-04-24 13:45:00,
2013-04-24 10:00:00,38.5,36.0,29.82,NNW,338,9.0,13.0,91,0.07,,,0.45,weatherlink.com 1.10,2013-04-24 14:00:00,
2013-04-24 10:15:00,38.1,36.0,29.84,WNW,302,8.0,13.0,91,0.07,,,0.46,weatherlink.com 1.10,2013-04-24 14:15:00,
2013-04-24 10:30:00,38.2,36.0,29.85,NW,309,5.0,10.0,91,0.06,,,0.48,weatherlink.com 1.10,2013-04-24 14:30:00,
2013-04-24 10:45:00,38.1,36.0,29.84,North,350,4.0,9.0,91,0.05,,,0.49,weatherlink.com 1.10,2013-04-24 14:45:00,
2013-04-24 11:00:00,37.6,35.0,29.84,NW,313,10.0,13.0,91,0.04,,,0.49,weatherlink.com 1.10,2013-04-24 15:00:00,
2013-04-24 11:16:00,36.9,35.0,29.84,NW,319,7.0,12.0,91,0.04,,,0.50,weatherlink.com 1.10,2013-04-24 15:16:00,
2013-04-24 11:30:00,36.7,34.6,29.83,NW,315,6.0,17.0,92,0.06,,SKC,0.54,VWS V14.01,2013-04-24 15:30:00,
2013-04-24 11:46:00,37.0,35.0,29.83,NW,320,4.0,12.0,92,0.02,,,0.51,weatherlink.com 1.10,2013-04-24 15:46:00,
2013-04-24 12:00:00,37.4,35.3,29.85,NW,315,7.0,15.0,92,0.03,,SKC,0.54,VWS V14.01,2013-04-24 16:00:00,
2013-04-24 12:01:00,37.6,36.0,29.85,NW,319,9.0,15.0,92,0.02,,,0.51,weatherlink.com 1.10,2013-04-24 16:01:00,
2013-04-24 12:16:00,37.5,35.0,29.87,NW,315,7.0,14.0,92,0.01,,,0.51,weatherlink.com 1.10,2013-04-24 16:16:00,
2013-04-24 12:31:00,37.2,35.0,29.88,WNW,303,5.0,15.0,91,0.00,,,0.51,weatherlink.com 1.10,2013-04-24 16:31:00,
2013-04-24 12:46:00,37.0,35.0,29.89,WNW,296,9.0,20.0,91,0.02,,,0.53,weatherlink.com 1.10,2013-04-24 16:46:00,
2013-04-24 12:57:00,36.6,34.2,29.90,NNW,336,7.0,7.0,91,0.05,,SKC,0.54,VWS V14.01,2013-04-24 16:57:00,
2013-04-24 13:00:00,36.5,34.1,29.90,WNW,288,10.0,13.0,91,0.05,,SKC,0.54,VWS V14.01,2013-04-24 17:00:00,
2013-04-24 13:02:00,36.5,34.1,29.90,WNW,282,13.0,13.0,91,0.05,,SKC,0.54,VWS V14.01,2013-04-24 17:02:00,
2013-04-24 13:07:00,36.6,34.5,29.90,WNW,295,11.0,12.0,92,0.03,,SKC,0.54,VWS V14.01,2013-04-24 17:07:00,
2013-04-24 13:12:00,36.7,34.6,29.90,WSW,245,2.0,7.0,92,0.04,,SKC,0.55,VWS V14.01,2013-04-24 17:12:00,
2013-04-24 13:17:00,36.9,34.8,29.91,WNW,297,4.0,7.0,92,0.04,,SKC,0.55,VWS V14.01,2013-04-24 17:17:00,
2013-04-24 13:22:00,36.7,34.6,29.91,West,274,8.0,11.0,92,0.04,,SKC,0.55,VWS V14.01,2013-04-24 17:22:00,
2013-04-24 13:27:00,36.5,34.4,29.92,NW,321,6.0,18.0,92,0.05,,SKC,0.56,VWS V14.01,2013-04-24 17:27:00,
2013-04-24 13:30:00,36.2,34.1,29.92,NW,323,12.0,16.0,92,0.05,,SKC,0.56,VWS V14.01,2013-04-24 17:30:00,
2013-04-24 13:32:00,36.3,34.2,29.92,West,275,10.0,16.0,92,0.05,,SKC,0.56,VWS V14.01,2013-04-24 17:32:00,
2013-04-24 13:37:00,36.3,34.2,29.92,NNW,342,4.0,8.0,92,0.03,,SKC,0.57,VWS V14.01,2013-04-24 17:37:00,
2013-04-24 13:42:00,36.3,34.2,29.92,NW,323,2.0,7.0,92,0.03,,SKC,0.57,VWS V14.01,2013-04-24 17:42:00,
2013-04-24 13:47:00,36.7,34.6,29.92,NW,304,9.0,10.0,92,0.03,,SKC,0.57,VWS V14.01,2013-04-24 17:47:00,
2013-04-24 13:52:00,36.6,34.2,29.92,NW,306,6.0,12.0,91,0.04,,SKC,0.58,VWS V14.01,2013-04-24 17:52:00,
2013-04-24 13:57:00,37.0,34.9,29.91,WNW,294,6.0,9.0,92,0.04,,SKC,0.58,VWS V14.01,2013-04-24 17:57:00,
2013-04-24 14:00:00,37.5,35.4,29.92,NW,305,7.0,16.0,92,0.04,,SKC,0.58,VWS V14.01,2013-04-24 18:00:00,
2013-04-24 14:02:00,37.5,35.4,29.92,WNW,292,8.0,16.0,92,0.04,,SKC,0.58,VWS V14.01,2013-04-24 18:02:00,
2013-04-24 14:07:00,37.6,35.5,29.92,West,278,13.0,13.0,92,0.04,,SKC,0.58,VWS V14.01,2013-04-24 18:07:00,
2013-04-24 14:12:00,37.7,35.3,29.92,WNW,298,11.0,11.0,91,0.04,,SKC,0.58,VWS V14.01,2013-04-24 18:12:00,
2013-04-24 14:17:00,37.7,35.3,29.92,WNW,295,8.0,9.0,91,0.04,,SKC,0.58,VWS V14.01,2013-04-24 18:17:00,
2013-04-24 14:22:00,37.9,35.5,29.93,NW,317,15.0,15.0,91,0.04,,SKC,0.58,VWS V14.01,2013-04-24 18:22:00,
2013-04-24 14:27:00,38.0,35.6,29.93,WSW,248,5.0,11.0,91,0.04,,SKC,0.58,VWS V14.01,2013-04-24 18:27:00,
2013-04-24 14:32:00,38.0,35.3,29.93,WNW,287,12.0,12.0,90,0.04,,SKC,0.58,VWS V14.01,2013-04-24 18:32:00,
2013-04-24 14:37:00,38.0,35.3,29.94,WNW,296,10.0,10.0,90,0.03,,SKC,0.59,VWS V14.01,2013-04-24 18:37:00,
2013-04-24 14:42:00,38.0,35.3,29.94,WNW,287,11.0,15.0,90,0.03,,SKC,0.59,VWS V14.01,2013-04-24 18:42:00,
2013-04-24 14:47:00,38.1,35.4,29.94,West,277,9.0,14.0,90,0.03,,SKC,0.59,VWS V14.01,2013-04-24 18:47:00,
2013-04-24 14:52:00,38.5,35.8,29.94,NW,311,11.0,14.0,90,0.03,,SKC,0.59,VWS V14.01,2013-04-24 18:52:00,
2013-04-24 14:57:00,38.4,35.7,29.95,West,279,15.0,15.0,90,0.03,,SKC,0.59,VWS V14.01,2013-04-24 18:57:00,
2013-04-24 15:03:00,38.3,35.6,29.95,West,267,5.0,18.0,90,0.03,,SKC,0.59,VWS V14.01,2013-04-24 19:03:00,
2013-04-24 15:08:00,38.4,35.7,29.96,WNW,286,7.0,15.0,90,0.01,,SKC,0.59,VWS V14.01,2013-04-24 19:08:00,
2013-04-24 15:13:00,38.6,36.0,29.95,WNW,303,7.0,22.0,90,0.01,,,0.59,weatherlink.com 1.10,2013-04-24 19:13:00,
2013-04-24 15:18:00,38.8,36.1,29.96,WNW,300,10.0,11.0,90,0.01,,SKC,0.59,VWS V14.01,2013-04-24 19:18:00,
2013-04-24 15:23:00,38.7,35.7,29.96,West,281,13.0,13.0,89,0.01,,SKC,0.59,VWS V14.01,2013-04-24 19:23:00,
2013-04-24 15:28:00,38.9,36.2,29.96,West,269,5.0,10.0,90,0.01,,SKC,0.59,VWS V14.01,2013-04-24 19:28:00,
2013-04-24 15:33:00,39.2,36.5,29.97,West,268,13.0,14.0,90,0.02,,SKC,0.60,VWS V14.01,2013-04-24 19:33:00,
2013-04-24 15:38:00,39.1,36.1,29.97,NW,309,12.0,13.0,89,0.02,,SKC,0.60,VWS V14.01,2013-04-24 19:38:00,
2013-04-24 15:43:00,39.1,36.1,29.97,West,260,13.0,14.0,89,0.02,,SKC,0.60,VWS V14.01,2013-04-24 19:43:00,
2013-04-24 15:48:00,39.0,36.0,29.98,West,276,7.0,12.0,89,0.02,,SKC,0.60,VWS V14.01,2013-04-24 19:48:00,
2013-04-24 15:53:00,39.3,36.3,29.98,NNW,338,7.0,14.0,89,0.02,,SKC,0.60,VWS V14.01,2013-04-24 19:53:00,
2013-04-24 15:58:00,39.7,36.7,29.98,NW,323,9.0,18.0,89,0.02,,SKC,0.60,VWS V14.01,2013-04-24 19:58:00,
2013-04-24 16:03:00,40.0,37.0,29.98,NW,309,12.0,22.0,89,0.01,,SKC,0.60,VWS V14.01,2013-04-24 20:03:00,
2013-04-24 16:08:00,40.7,37.4,29.98,WNW,295,11.0,14.0,88,0.01,,SKC,0.60,VWS V14.01,2013-04-24 20:08:00,
2013-04-24 16:13:00,40.9,37.3,29.99,West,278,4.0,8.0,87,0.01,,SKC,0.60,VWS V14.01,2013-04-24 20:13:00,
2013-04-24 16:18:00,40.7,36.5,29.99,WNW,287,10.0,11.0,85,0.01,,SKC,0.60,VWS V14.01,2013-04-24 20:18:00,
2013-04-24 16:23:00,40.7,36.2,29.99,WSW,258,6.0,12.0,84,0.01,,SKC,0.60,VWS V14.01,2013-04-24 20:23:00,
2013-04-24 16:28:00,40.5,36.0,30.00,West,279,8.0,15.0,84,0.01,,SKC,0.60,VWS V14.01,2013-04-24 20:28:00,
2013-04-24 16:33:00,39.5,35.1,30.00,West,266,13.0,13.0,84,0.00,,SKC,0.60,VWS V14.01,2013-04-24 20:33:00,
2013-04-24 16:38:00,39.7,35.6,30.00,NW,306,8.0,12.0,85,0.00,,SKC,0.60,VWS V14.01,2013-04-24 20:38:00,
2013-04-24 16:43:00,40.4,36.3,30.00,West,274,11.0,14.0,85,0.00,,SKC,0.60,VWS V14.01,2013-04-24 20:43:00,
2013-04-24 16:48:00,41.2,36.7,30.00,West,275,5.0,17.0,84,0.00,,SKC,0.60,VWS V14.01,2013-04-24 20:48:00,
2013-04-24 16:53:00,41.4,36.3,30.00,WSW,251,9.0,12.0,82,0.00,,SKC,0.60,VWS V14.01,2013-04-24 20:53:00,
2013-04-24 16:58:00,41.3,36.2,30.00,NW,315,7.0,12.0,82,0.00,,SKC,0.60,VWS V14.01,2013-04-24 20:58:00,
2013-04-24 17:03:00,40.9,36.1,30.00,West,278,9.0,16.0,83,0.00,,SKC,0.60,VWS V14.01,2013-04-24 21:03:00,
2013-04-24 17:08:00,41.0,35.6,30.00,WSW,255,8.0,11.0,81,0.00,,SKC,0.60,VWS V14.01,2013-04-24 21:08:00,
2013-04-24 17:13:00,41.5,35.8,30.00,WNW,300,18.0,18.0,80,0.00,,SKC,0.60,VWS V14.01,2013-04-24 21:13:00,
2013-04-24 17:18:00,42.0,35.7,30.00,WNW,282,6.0,9.0,78,0.00,,SKC,0.60,VWS V14.01,2013-04-24 21:18:00,
2013-04-24 17:23:00,42.5,36.1,30.01,WNW,283,5.0,16.0,78,0.00,,SKC,0.60,VWS V14.01,2013-04-24 21:23:00,
2013-04-24 17:28:00,42.7,36.0,30.01,West,272,7.0,7.0,77,0.00,,SKC,0.60,VWS V14.01,2013-04-24 21:28:00,
2013-04-24 17:33:00,42.7,35.7,30.01,West,274,11.0,11.0,76,0.00,,SKC,0.60,VWS V14.01,2013-04-24 21:33:00,
2013-04-24 17:38:00,42.9,35.2,30.01,West,279,9.0,15.0,74,0.00,,SKC,0.60,VWS V14.01,2013-04-24 21:38:00,
2013-04-24 17:43:00,43.4,35.3,30.01,WNW,294,4.0,15.0,73,0.00,,SKC,0.60,VWS V14.01,2013-04-24 21:43:00,
2013-04-24 17:48:00,43.7,34.9,30.02,WSW,248,5.0,13.0,71,0.00,,SKC,0.60,VWS V14.01,2013-04-24 21:48:00,
2013-04-24 17:53:00,43.7,34.6,30.02,WSW,242,13.0,16.0,70,0.00,,SKC,0.60,VWS V14.01,2013-04-24 21:53:00,
2013-04-24 17:58:00,43.6,34.8,30.03,WNW,284,6.0,17.0,71,0.00,,SKC,0.60,VWS V14.01,2013-04-24 21:58:00,
2013-04-24 18:04:00,43.5,34.0,30.03,West,264,11.0,15.0,69,0.00,,SKC,0.60,VWS V14.01,2013-04-24 22:04:00,
2013-04-24 18:09:00,44.0,34.5,30.03,West,271,7.0,22.0,69,0.00,,SKC,0.60,VWS V14.01,2013-04-24 22:09:00,
2013-04-24 18:14:00,44.1,33.5,30.03,West,267,9.0,10.0,66,0.00,,SKC,0.60,VWS V14.01,2013-04-24 22:14:00,
2013-04-24 18:19:00,44.2,33.2,30.04,NW,313,5.0,13.0,65,0.00,,SKC,0.60,VWS V14.01,2013-04-24 22:19:00,
2013-04-24 18:24:00,44.1,33.1,30.04,West,262,10.0,16.0,65,0.00,,SKC,0.60,VWS V14.01,2013-04-24 22:24:00,
2013-04-24 18:29:00,43.7,32.7,30.04,WSW,252,10.0,12.0,65,0.00,,SKC,0.60,VWS V14.01,2013-04-24 22:29:00,
2013-04-24 18:34:00,43.6,32.6,30.05,WNW,282,5.0,13.0,65,0.00,,SKC,0.60,VWS V14.01,2013-04-24 22:34:00,
2013-04-24 18:39:00,43.8,32.4,30.05,West,265,16.0,16.0,64,0.00,,SKC,0.60,VWS V14.01,2013-04-24 22:39:00,
2013-04-24 18:44:00,44.0,31.8,30.05,West,263,12.0,15.0,62,0.00,,SKC,0.60,VWS V14.01,2013-04-24 22:44:00,
2013-04-24 18:49:00,44.0,31.8,30.06,WSW,257,9.0,19.0,62,0.00,,SKC,0.60,VWS V14.01,2013-04-24 22:49:00,
2013-04-24 18:54:00,44.1,32.3,30.06,West,279,10.0,12.0,63,0.00,,SKC,0.60,VWS V14.01,2013-04-24 22:54:00,
2013-04-24 18:59:00,44.0,31.0,30.06,WSW,250,16.0,19.0,60,0.00,,SKC,0.60,VWS V14.01,2013-04-24 22:59:00,
2013-04-24 19:04:00,43.8,31.6,30.06,WSW,250,13.0,13.0,62,0.00,,SKC,0.60,VWS V14.01,2013-04-24 23:04:00,
2013-04-24 19:09:00,43.6,31.0,30.07,NW,307,15.0,15.0,61,0.00,,SKC,0.60,VWS V14.01,2013-04-24 23:09:00,
2013-04-24 19:14:00,43.6,30.6,30.07,WSW,250,17.0,17.0,60,0.00,,SKC,0.60,VWS V14.01,2013-04-24 23:14:00,
2013-04-24 19:19:00,43.4,30.9,30.07,West,267,16.0,16.0,61,0.00,,SKC,0.60,VWS V14.01,2013-04-24 23:19:00,
2013-04-24 19:24:00,43.3,30.0,30.07,WSW,249,12.0,18.0,59,0.00,,SKC,0.60,VWS V14.01,2013-04-24 23:24:00,
2013-04-24 19:29:00,43.1,29.8,30.07,West,260,13.0,16.0,59,0.00,,SKC,0.60,VWS V14.01,2013-04-24 23:29:00,
2013-04-24 19:34:00,42.8,29.5,30.08,WSW,251,10.0,13.0,59,0.00,,SKC,0.60,VWS V14.01,2013-04-24 23:34:00,
2013-04-24 19:39:00,42.7,29.8,30.08,West,267,5.0,9.0,60,0.00,,SKC,0.60,VWS V14.01,2013-04-24 23:39:00,
2013-04-24 19:44:00,42.4,29.9,30.08,WSW,257,11.0,12.0,61,0.00,,SKC,0.60,VWS V14.01,2013-04-24 23:44:00,
2013-04-24 19:49:00,42.2,29.7,30.08,West,271,7.0,14.0,61,0.00,,SKC,0.60,VWS V14.01,2013-04-24 23:49:00,
2013-04-24 19:54:00,42.0,29.9,30.08,West,272,9.0,10.0,62,0.00,,SKC,0.60,VWS V14.01,2013-04-24 23:54:00,
2013-04-24 19:59:00,41.8,29.8,30.08,West,274,5.0,10.0,62,0.00,,SKC,0.60,VWS V14.01,2013-04-24 23:59:00,
2013-04-24 20:04:00,41.5,29.9,30.09,WSW,255,6.0,8.0,63,0.00,,SKC,0.60,VWS V14.01,2013-04-25 00:04:00,
2013-04-24 20:09:00,41.2,30.0,30.09,WSW,257,6.0,7.0,64,0.00,,SKC,0.60,VWS V14.01,2013-04-25 00:09:00,
2013-04-24 20:14:00,41.0,30.1,30.09,West,268,10.0,10.0,65,0.00,,SKC,0.60,VWS V14.01,2013-04-25 00:14:00,
2013-04-24 20:19:00,40.7,30.2,30.10,WSW,241,3.0,7.0,66,0.00,,SKC,0.60,VWS V14.01,2013-04-25 00:19:00,
2013-04-24 20:24:00,40.6,29.8,30.10,WSW,247,7.0,10.0,65,0.00,,SKC,0.60,VWS V14.01,2013-04-25 00:24:00,
2013-04-24 20:29:00,40.4,29.6,30.10,West,270,6.0,8.0,65,0.00,,SKC,0.60,VWS V14.01,2013-04-25 00:29:00,
2013-04-24 20:34:00,40.3,29.5,30.11,West,267,4.0,8.0,65,0.00,,SKC,0.60,VWS V14.01,2013-04-25 00:34:00,
2013-04-24 20:39:00,40.0,29.2,30.11,West,265,4.0,8.0,65,0.00,,SKC,0.60,VWS V14.01,2013-04-25 00:39:00,
2013-04-24 20:44:00,39.8,29.4,30.11,West,266,4.0,6.0,66,0.00,,SKC,0.60,VWS V14.01,2013-04-25 00:44:00,
2013-04-24 20:50:00,39.5,29.1,30.12,West,270,4.0,7.0,66,0.00,,SKC,0.60,VWS V14.01,2013-04-25 00:50:00,
2013-04-24 20:55:00,39.4,28.6,30.12,SW,227,8.0,9.0,65,0.00,,SKC,0.60,VWS V14.01,2013-04-25 00:55:00,
2013-04-24 21:00:00,39.2,28.4,30.13,West,271,5.0,9.0,65,0.00,,SKC,0.60,VWS V14.01,2013-04-25 01:00:00,
2013-04-24 21:05:00,39.0,28.2,30.13,West,277,3.0,10.0,65,0.00,,SKC,0.60,VWS V14.01,2013-04-25 01:05:00,
2013-04-24 21:10:00,38.8,28.1,30.13,WSW,256,7.0,10.0,65,0.00,,SKC,0.60,VWS V14.01,2013-04-25 01:10:00,
2013-04-24 21:15:00,38.6,27.9,30.14,WSW,255,7.0,7.0,65,0.00,,SKC,0.60,VWS V14.01,2013-04-25 01:15:00,
2013-04-24 21:20:00,38.4,28.0,30.14,WSW,244,7.0,8.0,66,0.00,,SKC,0.60,VWS V14.01,2013-04-25 01:20:00,
2013-04-24 21:25:00,38.3,28.0,30.14,West,265,5.0,9.0,66,0.00,,SKC,0.60,VWS V14.01,2013-04-25 01:25:00,
2013-04-24 21:30:00,38.2,28.2,30.14,West,261,4.0,5.0,67,0.00,,SKC,0.60,VWS V14.01,2013-04-25 01:30:00,
2013-04-24 21:35:00,37.9,28.6,30.15,WSW,241,5.0,5.0,69,0.00,,SKC,0.60,VWS V14.01,2013-04-25 01:35:00,
2013-04-24 21:40:00,37.4,28.5,30.15,WSW,246,3.0,5.0,70,0.00,,SKC,0.60,VWS V14.01,2013-04-25 01:40:00,
2013-04-24 21:45:00,37.0,28.5,30.15,WSW,243,5.0,5.0,71,0.00,,SKC,0.60,VWS V14.01,2013-04-25 01:45:00,
2013-04-24 21:50:00,36.7,28.5,30.15,WSW,244,3.0,4.0,72,0.00,,SKC,0.60,VWS V14.01,2013-04-25 01:50:00,
2013-04-24 21:55:00,36.5,28.4,30.15,WSW,249,5.0,5.0,72,0.00,,SKC,0.60,VWS V14.01,2013-04-25 01:55:00,
2013-04-24 22:00:00,36.4,28.2,30.16,WSW,249,4.0,6.0,72,0.00,,SKC,0.60,VWS V14.01,2013-04-25 02:00:00,
2013-04-24 22:05:00,36.3,28.1,30.16,WSW,239,3.0,4.0,72,0.00,,SKC,0.60,VWS V14.01,2013-04-25 02:05:00,
2013-04-24 22:10:00,36.1,28.0,30.16,SW,225,5.0,5.0,72,0.00,,SKC,0.60,VWS V14.01,2013-04-25 02:10:00,
2013-04-24 22:15:00,35.9,27.8,30.16,SW,229,6.0,6.0,72,0.00,,SKC,0.60,VWS V14.01,2013-04-25 02:15:00,
2013-04-24 22:20:00,36.0,27.9,30.17,SW,221,6.0,6.0,72,0.00,,SKC,0.60,VWS V14.01,2013-04-25 02:20:00,
2013-04-24 22:25:00,36.1,27.6,30.17,WSW,239,4.0,5.0,71,0.00,,SKC,0.60,VWS V14.01,2013-04-25 02:25:00,
2013-04-24 22:30:00,36.1,27.6,30.17,WSW,238,3.0,4.0,71,0.00,,SKC,0.60,VWS V14.01,2013-04-25 02:30:00,
2013-04-24 22:35:00,36.0,27.5,30.17,SW,236,1.0,1.0,71,0.00,,SKC,0.60,VWS V14.01,2013-04-25 02:35:00,
2013-04-24 22:40:00,36.1,27.6,30.17,SW,229,2.0,4.0,71,0.00,,SKC,0.60,VWS V14.01,2013-04-25 02:40:00,
2013-04-24 22:45:00,36.1,27.6,30.17,SW,227,2.0,3.0,71,0.00,,SKC,0.60,VWS V14.01,2013-04-25 02:45:00,
2013-04-24 22:50:00,36.2,27.7,30.17,SW,229,2.0,3.0,71,0.00,,SKC,0.60,VWS V14.01,2013-04-25 02:50:00,
2013-04-24 22:55:00,36.3,27.8,30.17,SW,221,3.0,4.0,71,0.00,,SKC,0.60,VWS V14.01,2013-04-25 02:55:00,
2013-04-24 23:00:00,36.3,28.1,30.18,SW,220,4.0,4.0,72,0.00,,SKC,0.60,VWS V14.01,2013-04-25 03:00:00,
2013-04-24 23:05:00,36.3,28.1,30.18,SW,219,2.0,2.0,72,0.00,,SKC,0.60,VWS V14.01,2013-04-25 03:05:00,
2013-04-24 23:10:00,36.1,28.0,30.18,SW,225,3.0,3.0,72,0.00,,SKC,0.60,VWS V14.01,2013-04-25 03:10:00,
2013-04-24 23:15:00,36.0,27.9,30.17,SW,222,4.0,4.0,72,0.00,,SKC,0.60,VWS V14.01,2013-04-25 03:15:00,
2013-04-24 23:21:00,35.8,27.7,30.17,SW,218,2.0,6.0,72,0.00,,SKC,0.60,VWS V14.01,2013-04-25 03:21:00,
2013-04-24 23:26:00,35.7,27.6,30.17,SW,229,2.0,4.0,72,0.00,,SKC,0.60,VWS V14.01,2013-04-25 03:26:00,
2013-04-24 23:31:00,35.9,27.8,30.17,SW,221,1.0,2.0,72,0.00,,SKC,0.60,VWS V14.01,2013-04-25 03:31:00,
2013-04-24 23:36:00,35.7,27.9,30.17,SW,220,2.0,3.0,73,0.00,,SKC,0.60,VWS V14.01,2013-04-25 03:36:00,
2013-04-24 23:40:00,35.7,27.9,30.17,SW,220,1.0,3.0,73,0.00,,SKC,0.60,VWS V14.01,2013-04-25 03:40:00,
2013-04-24 23:46:00,35.6,27.8,30.17,SW,234,1.0,2.0,73,0.00,,SKC,0.60,VWS V14.01,2013-04-25 03:46:00,
2013-04-24 23:51:00,35.4,28.3,30.17,SW,232,1.0,3.0,75,0.00,,SKC,0.60,VWS V14.01,2013-04-25 03:51:00,
2013-04-24 23:56:00,34.9,28.4,30.17,SW,225,5.0,5.0,77,0.00,,SKC,0.60,VWS V14.01,2013-04-25 03:56:00,